sensor_id;sensor_type;location;lat;lon;timestamp;pressure;altitude;pressure_sealevel;temperature;humidity
84032;BME280;74113;46.556;24.570;2024-02-16T00:02:23;98932.61;;;1.90;68.16
84032;BME280;74113;46.556;24.570;2024-02-16T00:04:52;98931.58;;;1.87;67.98
84032;BME280;74113;46.556;24.570;2024-02-16T00:07:22;98933.61;;;1.84;68.00
84032;BME280;74113;46.556;24.570;2024-02-16T00:09:51;98929.46;;;1.80;68.01
84032;BME280;74113;46.556;24.570;2024-02-16T00:12:19;98926.05;;;1.80;68.13
84032;BME280;74113;46.556;24.570;2024-02-16T00:14:48;98925.71;;;1.82;68.39
84032;BME280;74113;46.556;24.570;2024-02-16T00:17:17;98924.68;;;1.80;68.46
84032;BME280;74113;46.556;24.570;2024-02-16T00:19:46;98923.66;;;1.81;68.42
84032;BME280;74113;46.556;24.570;2024-02-16T00:22:14;98928.30;;;1.85;68.17
84032;BME280;74113;46.556;24.570;2024-02-16T00:24:43;98934.48;;;1.87;68.22
84032;BME280;74113;46.556;24.570;2024-02-16T00:27:13;98932.24;;;1.86;68.36
84032;BME280;74113;46.556;24.570;2024-02-16T00:29:42;98930.02;;;1.87;67.99
84032;BME280;74113;46.556;24.570;2024-02-16T00:32:12;98926.61;;;1.87;67.99
84032;BME280;74113;46.556;24.570;2024-02-16T00:34:41;98925.05;;;1.86;68.02
84032;BME280;74113;46.556;24.570;2024-02-16T00:37:10;98922.46;;;1.81;67.94
84032;BME280;74113;46.556;24.570;2024-02-16T00:39:40;98924.48;;;1.79;67.93
84032;BME280;74113;46.556;24.570;2024-02-16T00:42:09;98923.45;;;1.76;68.08
84032;BME280;74113;46.556;24.570;2024-02-16T00:44:39;98922.05;;;1.73;68.19
84032;BME280;74113;46.556;24.570;2024-02-16T00:47:08;98922.56;;;1.71;68.20
84032;BME280;74113;46.556;24.570;2024-02-16T00:49:39;98920.99;;;1.68;68.57
84032;BME280;74113;46.556;24.570;2024-02-16T00:52:08;98913.60;;;1.61;68.34
84032;BME280;74113;46.556;24.570;2024-02-16T00:54:39;98913.55;;;1.55;68.46
84032;BME280;74113;46.556;24.570;2024-02-16T00:57:07;98911.65;;;1.53;68.10
84032;BME280;74113;46.556;24.570;2024-02-16T00:59:35;98910.44;;;1.51;68.06
84032;BME280;74113;46.556;24.570;2024-02-16T01:02:04;98910.27;;;1.50;68.46
84032;BME280;74113;46.556;24.570;2024-02-16T01:04:33;98909.73;;;1.49;68.57
84032;BME280;74113;46.556;24.570;2024-02-16T01:07:02;98914.34;;;1.47;68.94
84032;BME280;74113;46.556;24.570;2024-02-16T01:09:31;98920.96;;;1.43;68.88
84032;BME280;74113;46.556;24.570;2024-02-16T01:12:00;98920.43;;;1.39;68.71
84032;BME280;74113;46.556;24.570;2024-02-16T01:14:29;98922.96;;;1.36;68.68
84032;BME280;74113;46.556;24.570;2024-02-16T01:16:58;98920.19;;;1.31;68.52
84032;BME280;74113;46.556;24.570;2024-02-16T01:19:27;98920.84;;;1.27;68.73
84032;BME280;74113;46.556;24.570;2024-02-16T01:21:57;98922.84;;;1.22;69.01
84032;BME280;74113;46.556;24.570;2024-02-16T01:24:27;98917.84;;;1.17;69.08
84032;BME280;74113;46.556;24.570;2024-02-16T01:26:56;98916.77;;;1.13;68.90
84032;BME280;74113;46.556;24.570;2024-02-16T01:29:25;98916.06;;;1.09;69.15
84032;BME280;74113;46.556;24.570;2024-02-16T01:31:53;98914.31;;;1.05;68.93
84032;BME280;74113;46.556;24.570;2024-02-16T01:34:22;98912.23;;;1.02;68.97
84032;BME280;74113;46.556;24.570;2024-02-16T01:36:52;98906.41;;;1.00;68.89
84032;BME280;74113;46.556;24.570;2024-02-16T01:39:21;98908.12;;;1.00;69.23
84032;BME280;74113;46.556;24.570;2024-02-16T01:41:49;98908.95;;;0.99;69.60
84032;BME280;74113;46.556;24.570;2024-02-16T01:44:19;98911.51;;;0.97;69.26
84032;BME280;74113;46.556;24.570;2024-02-16T01:46:48;98911.63;;;0.93;69.53
84032;BME280;74113;46.556;24.570;2024-02-16T01:49:16;98909.70;;;0.88;69.54
84032;BME280;74113;46.556;24.570;2024-02-16T01:51:46;98909.17;;;0.85;70.02
84032;BME280;74113;46.556;24.570;2024-02-16T01:54:15;98904.87;;;0.83;69.37
84032;BME280;74113;46.556;24.570;2024-02-16T01:56:46;98907.45;;;0.84;69.01
84032;BME280;74113;46.556;24.570;2024-02-16T01:59:16;98905.71;;;0.82;69.73
84032;BME280;74113;46.556;24.570;2024-02-16T02:01:46;98902.42;;;0.78;69.34
84032;BME280;74113;46.556;24.570;2024-02-16T02:04:14;98900.02;;;0.77;69.64
84032;BME280;74113;46.556;24.570;2024-02-16T02:06:44;98899.67;;;0.76;69.84
84032;BME280;74113;46.556;24.570;2024-02-16T02:09:13;98899.01;;;0.78;70.00
84032;BME280;74113;46.556;24.570;2024-02-16T02:11:42;98893.52;;;0.75;70.35
84032;BME280;74113;46.556;24.570;2024-02-16T02:14:11;98895.88;;;0.73;70.20
84032;BME280;74113;46.556;24.570;2024-02-16T02:16:40;98895.66;;;0.70;70.26
84032;BME280;74113;46.556;24.570;2024-02-16T02:19:22;98897.84;;;0.66;70.09
84032;BME280;74113;46.556;24.570;2024-02-16T02:21:51;98893.92;;;0.65;69.84
84032;BME280;74113;46.556;24.570;2024-02-16T02:24:20;98895.80;;;0.65;69.99
84032;BME280;74113;46.556;24.570;2024-02-16T02:26:50;98896.61;;;0.63;70.10
84032;BME280;74113;46.556;24.570;2024-02-16T02:29:19;98901.59;;;0.65;70.30
84032;BME280;74113;46.556;24.570;2024-02-16T02:31:48;98901.45;;;0.66;70.01
84032;BME280;74113;46.556;24.570;2024-02-16T02:34:17;98899.77;;;0.68;70.26
84032;BME280;74113;46.556;24.570;2024-02-16T02:36:46;98903.68;;;0.67;70.21
84032;BME280;74113;46.556;24.570;2024-02-16T02:39:15;98901.77;;;0.64;70.34
84032;BME280;74113;46.556;24.570;2024-02-16T02:41:44;98908.39;;;0.61;70.16
84032;BME280;74113;46.556;24.570;2024-02-16T02:44:13;98907.86;;;0.61;69.97
84032;BME280;74113;46.556;24.570;2024-02-16T02:46:41;98909.27;;;0.64;69.73
84032;BME280;74113;46.556;24.570;2024-02-16T02:49:10;98911.86;;;0.66;69.69
84032;BME280;74113;46.556;24.570;2024-02-16T02:51:39;98915.28;;;0.66;69.64
84032;BME280;74113;46.556;24.570;2024-02-16T02:54:08;98915.23;;;0.64;69.94
84032;BME280;74113;46.556;24.570;2024-02-16T02:56:36;98916.19;;;0.56;69.79
84032;BME280;74113;46.556;24.570;2024-02-16T02:59:05;98914.95;;;0.53;69.69
84032;BME280;74113;46.556;24.570;2024-02-16T03:01:35;98918.02;;;0.53;69.80
84032;BME280;74113;46.556;24.570;2024-02-16T03:04:04;98922.14;;;0.55;69.71
84032;BME280;74113;46.556;24.570;2024-02-16T03:06:33;98920.77;;;0.53;69.81
84032;BME280;74113;46.556;24.570;2024-02-16T03:09:02;98920.21;;;0.50;69.71
84032;BME280;74113;46.556;24.570;2024-02-16T03:11:31;98919.69;;;0.49;69.21
84032;BME280;74113;46.556;24.570;2024-02-16T03:13:59;98915.73;;;0.47;69.36
84032;BME280;74113;46.556;24.570;2024-02-16T03:16:28;98916.41;;;0.46;69.03
84032;BME280;74113;46.556;24.570;2024-02-16T03:18:57;98915.02;;;0.43;69.24
84032;BME280;74113;46.556;24.570;2024-02-16T03:21:26;98914.78;;;0.38;69.71
84032;BME280;74113;46.556;24.570;2024-02-16T03:23:55;98917.44;;;0.32;69.51
84032;BME280;74113;46.556;24.570;2024-02-16T03:26:24;98918.78;;;0.31;69.46
84032;BME280;74113;46.556;24.570;2024-02-16T03:28:53;98915.15;;;0.27;69.20
84032;BME280;74113;46.556;24.570;2024-02-16T03:31:23;98912.04;;;0.24;69.56
84032;BME280;74113;46.556;24.570;2024-02-16T03:33:52;98917.42;;;0.18;69.93
84032;BME280;74113;46.556;24.570;2024-02-16T03:36:22;98917.92;;;0.17;69.39
84032;BME280;74113;46.556;24.570;2024-02-16T03:38:50;98915.23;;;0.20;69.53
84032;BME280;74113;46.556;24.570;2024-02-16T03:41:22;98920.35;;;0.20;69.63
84032;BME280;74113;46.556;24.570;2024-02-16T03:43:51;98921.02;;;0.19;69.61
84032;BME280;74113;46.556;24.570;2024-02-16T03:46:22;98921.67;;;0.17;69.46
84032;BME280;74113;46.556;24.570;2024-02-16T03:48:50;98918.59;;;0.16;69.57
84032;BME280;74113;46.556;24.570;2024-02-16T03:51:19;98918.22;;;0.13;69.54
84032;BME280;74113;46.556;24.570;2024-02-16T03:53:47;98921.79;;;0.13;69.45
84032;BME280;74113;46.556;24.570;2024-02-16T03:56:20;98928.22;;;0.10;69.74
84032;BME280;74113;46.556;24.570;2024-02-16T03:58:49;98926.23;;;0.00;70.00
84032;BME280;74113;46.556;24.570;2024-02-16T04:01:18;98933.15;;;-0.05;69.93
84032;BME280;74113;46.556;24.570;2024-02-16T04:03:47;98931.95;;;-0.06;70.12
84032;BME280;74113;46.556;24.570;2024-02-16T04:06:15;98931.92;;;-0.08;69.93
84032;BME280;74113;46.556;24.570;2024-02-16T04:08:44;98933.15;;;-0.05;69.93
84032;BME280;74113;46.556;24.570;2024-02-16T04:11:14;98935.91;;;-0.04;69.82
84032;BME280;74113;46.556;24.570;2024-02-16T04:13:44;98940.34;;;-0.04;70.05
84032;BME280;74113;46.556;24.570;2024-02-16T04:16:13;98944.27;;;-0.03;69.86
84032;BME280;74113;46.556;24.570;2024-02-16T04:18:42;98943.27;;;-0.01;70.25
84032;BME280;74113;46.556;24.570;2024-02-16T04:21:11;98943.14;;;0.02;70.42
84032;BME280;74113;46.556;24.570;2024-02-16T04:23:40;98942.57;;;-0.02;70.64
84032;BME280;74113;46.556;24.570;2024-02-16T04:26:10;98941.35;;;-0.04;70.43
84032;BME280;74113;46.556;24.570;2024-02-16T04:28:39;98939.15;;;-0.03;70.18
84032;BME280;74113;46.556;24.570;2024-02-16T04:31:08;98938.66;;;-0.01;69.99
84032;BME280;74113;46.556;24.570;2024-02-16T04:33:38;98938.69;;;0.01;69.58
84032;BME280;74113;46.556;24.570;2024-02-16T04:36:08;98943.14;;;0.02;69.29
84032;BME280;74113;46.556;24.570;2024-02-16T04:38:37;98943.48;;;0.03;69.15
84032;BME280;74113;46.556;24.570;2024-02-16T04:41:06;98941.23;;;0.00;69.00
84032;BME280;74113;46.556;24.570;2024-02-16T04:43:35;98942.59;;;-0.01;69.34
84032;BME280;74113;46.556;24.570;2024-02-16T04:46:04;98940.81;;;-0.06;69.37
84032;BME280;74113;46.556;24.570;2024-02-16T04:48:34;98937.27;;;-0.14;69.58
84032;BME280;74113;46.556;24.570;2024-02-16T04:51:03;98938.93;;;-0.17;69.84
84032;BME280;74113;46.556;24.570;2024-02-16T04:53:32;98935.52;;;-0.18;69.67
84032;BME280;74113;46.556;24.570;2024-02-16T04:56:00;98937.80;;;-0.14;69.92
84032;BME280;74113;46.556;24.570;2024-02-16T04:58:31;98942.30;;;-0.09;69.88
84032;BME280;74113;46.556;24.570;2024-02-16T05:01:00;98942.86;;;-0.05;69.78
84032;BME280;74113;46.556;24.570;2024-02-16T05:03:29;98942.83;;;-0.08;69.71
84032;BME280;74113;46.556;24.570;2024-02-16T05:06:01;98943.81;;;-0.11;69.49
84032;BME280;74113;46.556;24.570;2024-02-16T05:08:31;98945.98;;;-0.13;69.57
84032;BME280;74113;46.556;24.570;2024-02-16T05:11:01;98943.09;;;-0.14;69.22
84032;BME280;74113;46.556;24.570;2024-02-16T05:13:31;98942.23;;;-0.13;69.21
84032;BME280;74113;46.556;24.570;2024-02-16T05:16:01;98942.42;;;-0.13;69.08
84032;BME280;74113;46.556;24.570;2024-02-16T05:18:30;98944.43;;;-0.14;69.01
84032;BME280;74113;46.556;24.570;2024-02-16T05:21:00;98943.02;;;-0.18;69.31
84032;BME280;74113;46.556;24.570;2024-02-16T05:23:29;98950.66;;;-0.20;69.30
84032;BME280;74113;46.556;24.570;2024-02-16T05:25:58;98952.39;;;-0.19;69.34
84032;BME280;74113;46.556;24.570;2024-02-16T05:28:27;98952.93;;;-0.17;69.36
84032;BME280;74113;46.556;24.570;2024-02-16T05:30:58;98956.30;;;-0.18;69.58
84032;BME280;74113;46.556;24.570;2024-02-16T05:33:32;98957.54;;;-0.16;69.47
84032;BME280;74113;46.556;24.570;2024-02-16T05:36:02;98962.98;;;-0.16;69.97
84032;BME280;74113;46.556;24.570;2024-02-16T05:38:33;98958.41;;;-0.15;69.48
84032;BME280;74113;46.556;24.570;2024-02-16T05:41:09;98962.59;;;-0.10;69.97
84032;BME280;74113;46.556;24.570;2024-02-16T05:43:42;98963.86;;;-0.04;70.32
84032;BME280;74113;46.556;24.570;2024-02-16T05:46:13;98969.09;;;0.04;70.29
84032;BME280;74113;46.556;24.570;2024-02-16T05:48:44;98968.84;;;0.10;70.10
84032;BME280;74113;46.556;24.570;2024-02-16T05:51:15;98966.15;;;0.13;70.09
84032;BME280;74113;46.556;24.570;2024-02-16T05:53:46;98969.61;;;0.16;70.50
84032;BME280;74113;46.556;24.570;2024-02-16T05:56:22;98972.02;;;0.30;71.08
84032;BME280;74113;46.556;24.570;2024-02-16T05:58:54;98973.75;;;0.45;70.38
84032;BME280;74113;46.556;24.570;2024-02-16T06:01:26;98969.40;;;0.52;69.82
84032;BME280;74113;46.556;24.570;2024-02-16T06:04:00;98970.63;;;0.55;68.87
84032;BME280;74113;46.556;24.570;2024-02-16T06:06:32;98977.05;;;0.49;68.97
84032;BME280;74113;46.556;24.570;2024-02-16T06:09:11;98980.36;;;0.42;68.95
84032;BME280;74113;46.556;24.570;2024-02-16T06:11:45;98980.28;;;0.35;69.06
84032;BME280;74113;46.556;24.570;2024-02-16T06:14:17;98980.01;;;0.28;69.30
84032;BME280;74113;46.556;24.570;2024-02-16T06:16:50;98978.77;;;0.25;69.40
84032;BME280;74113;46.556;24.570;2024-02-16T06:19:22;98980.96;;;0.23;69.65
84032;BME280;74113;46.556;24.570;2024-02-16T06:21:54;98979.93;;;0.22;69.71
84032;BME280;74113;46.556;24.570;2024-02-16T06:24:25;98987.67;;;0.27;69.96
84032;BME280;74113;46.556;24.570;2024-02-16T06:26:55;98986.35;;;0.30;69.92
84032;BME280;74113;46.556;24.570;2024-02-16T06:29:27;98993.42;;;0.35;70.07
84032;BME280;74113;46.556;24.570;2024-02-16T06:31:58;98993.49;;;0.41;70.29
84032;BME280;74113;46.556;24.570;2024-02-16T06:34:28;99000.23;;;0.46;70.31
84032;BME280;74113;46.556;24.570;2024-02-16T06:36:57;98999.79;;;0.52;70.15
84032;BME280;74113;46.556;24.570;2024-02-16T06:39:26;99002.39;;;0.56;69.89
84032;BME280;74113;46.556;24.570;2024-02-16T06:41:58;99000.90;;;0.58;69.96
84032;BME280;74113;46.556;24.570;2024-02-16T06:44:31;99001.10;;;0.62;70.00
84032;BME280;74113;46.556;24.570;2024-02-16T06:47:00;99005.27;;;0.67;69.68
84032;BME280;74113;46.556;24.570;2024-02-16T06:49:31;99002.39;;;0.68;70.09
84032;BME280;74113;46.556;24.570;2024-02-16T06:52:05;98996.80;;;0.73;69.81
84032;BME280;74113;46.556;24.570;2024-02-16T06:54:37;98997.89;;;0.77;70.65
84032;BME280;74113;46.556;24.570;2024-02-16T06:57:16;98998.99;;;0.83;70.02
84032;BME280;74113;46.556;24.570;2024-02-16T06:59:57;99004.35;;;0.89;69.92
84032;BME280;74113;46.556;24.570;2024-02-16T07:02:32;99004.45;;;0.98;70.49
84032;BME280;74113;46.556;24.570;2024-02-16T07:05:50;99006.50;;;1.14;70.13
84032;BME280;74113;46.556;24.570;2024-02-16T07:08:24;99000.15;;;1.26;69.89
84032;BME280;74113;46.556;24.570;2024-02-16T07:10:56;99002.23;;;1.31;69.31
84032;BME280;74113;46.556;24.570;2024-02-16T07:13:25;99005.02;;;1.34;69.22
84032;BME280;74113;46.556;24.570;2024-02-16T07:15:57;99009.48;;;1.37;68.99
84032;BME280;74113;46.556;24.570;2024-02-16T07:18:28;99010.71;;;1.42;68.31
84032;BME280;74113;46.556;24.570;2024-02-16T07:20:59;99012.44;;;1.42;67.94
84032;BME280;74113;46.556;24.570;2024-02-16T07:23:30;99013.48;;;1.45;68.18
84032;BME280;74113;46.556;24.570;2024-02-16T07:26:03;99013.06;;;1.53;68.00
84032;BME280;74113;46.556;24.570;2024-02-16T07:28:35;99015.41;;;1.50;67.41
84032;BME280;74113;46.556;24.570;2024-02-16T07:31:06;99016.95;;;1.49;67.70
84032;BME280;74113;46.556;24.570;2024-02-16T07:33:36;99013.91;;;1.52;68.09
84032;BME280;74113;46.556;24.570;2024-02-16T07:36:06;99012.41;;;1.57;67.78
84032;BME280;74113;46.556;24.570;2024-02-16T07:38:36;99015.20;;;1.63;67.56
84032;BME280;74113;46.556;24.570;2024-02-16T07:41:06;99008.88;;;1.64;67.47
84032;BME280;74113;46.556;24.570;2024-02-16T07:43:37;99006.84;;;1.66;67.67
84032;BME280;74113;46.556;24.570;2024-02-16T07:46:09;99006.53;;;1.71;67.78
84032;BME280;74113;46.556;24.570;2024-02-16T07:48:38;99004.36;;;1.74;67.17
84032;BME280;74113;46.556;24.570;2024-02-16T07:51:08;99004.07;;;1.82;67.59
84032;BME280;74113;46.556;24.570;2024-02-16T07:53:41;99007.88;;;1.87;66.69
84032;BME280;74113;46.556;24.570;2024-02-16T07:56:15;99010.80;;;1.90;66.87
84032;BME280;74113;46.556;24.570;2024-02-16T07:58:46;99005.72;;;1.96;67.01
84032;BME280;74113;46.556;24.570;2024-02-16T08:01:25;99010.94;;;2.08;66.99
84032;BME280;74113;46.556;24.570;2024-02-16T08:03:56;99009.21;;;2.30;66.69
84032;BME280;74113;46.556;24.570;2024-02-16T08:06:26;99004.17;;;2.47;66.80
84032;BME280;74113;46.556;24.570;2024-02-16T08:09:02;99003.39;;;2.63;65.61
84032;BME280;74113;46.556;24.570;2024-02-16T08:11:35;99002.75;;;2.72;65.47
84032;BME280;74113;46.556;24.570;2024-02-16T08:14:09;99001.26;;;2.83;65.40
84032;BME280;74113;46.556;24.570;2024-02-16T08:16:38;98999.06;;;2.92;64.76
84032;BME280;74113;46.556;24.570;2024-02-16T08:19:08;98999.27;;;2.96;64.15
84032;BME280;74113;46.556;24.570;2024-02-16T08:21:38;98994.12;;;2.95;63.36
84032;BME280;74113;46.556;24.570;2024-02-16T08:24:07;98997.00;;;2.93;63.40
84032;BME280;74113;46.556;24.570;2024-02-16T08:26:37;98998.39;;;2.95;64.21
84032;BME280;74113;46.556;24.570;2024-02-16T08:29:07;98995.16;;;3.03;64.07
84032;BME280;74113;46.556;24.570;2024-02-16T08:31:58;98992.45;;;3.13;63.52
84032;BME280;74113;46.556;24.570;2024-02-16T08:34:28;98991.60;;;3.20;63.18
84032;BME280;74113;46.556;24.570;2024-02-16T08:36:58;98989.73;;;3.25;62.64
84032;BME280;74113;46.556;24.570;2024-02-16T08:39:31;98988.70;;;3.28;63.26
84032;BME280;74113;46.556;24.570;2024-02-16T08:42:02;98990.27;;;3.37;63.34
84032;BME280;74113;46.556;24.570;2024-02-16T08:44:33;98991.32;;;3.50;63.36
84032;BME280;74113;46.556;24.570;2024-02-16T08:47:07;98994.07;;;3.62;64.80
84032;BME280;74113;46.556;24.570;2024-02-16T08:49:38;98990.31;;;3.74;64.12
84032;BME280;74113;46.556;24.570;2024-02-16T08:52:18;98986.35;;;3.87;64.65
84032;BME280;74113;46.556;24.570;2024-02-16T08:54:49;98986.52;;;4.06;65.00
84032;BME280;74113;46.556;24.570;2024-02-16T08:57:19;98988.03;;;4.32;64.27
84032;BME280;74113;46.556;24.570;2024-02-16T08:59:49;98985.57;;;4.48;63.35
84032;BME280;74113;46.556;24.570;2024-02-16T09:02:22;98983.67;;;4.55;63.65
84032;BME280;74113;46.556;24.570;2024-02-16T09:04:59;98984.67;;;4.62;63.46
84032;BME280;74113;46.556;24.570;2024-02-16T09:07:28;98984.83;;;4.69;63.24
84032;BME280;74113;46.556;24.570;2024-02-16T09:09:59;98988.94;;;4.73;63.11
84032;BME280;74113;46.556;24.570;2024-02-16T09:12:34;98988.05;;;4.76;62.49
84032;BME280;74113;46.556;24.570;2024-02-16T09:15:05;98987.70;;;4.81;63.12
84032;BME280;74113;46.556;24.570;2024-02-16T09:17:45;98985.80;;;4.84;62.40
84032;BME280;74113;46.556;24.570;2024-02-16T09:20:15;98985.58;;;4.91;62.60
84032;BME280;74113;46.556;24.570;2024-02-16T09:22:46;98983.48;;;4.99;62.12
84032;BME280;74113;46.556;24.570;2024-02-16T09:25:17;98980.01;;;5.06;61.88
84032;BME280;74113;46.556;24.570;2024-02-16T09:27:47;98978.27;;;5.12;61.76
84032;BME280;74113;46.556;24.570;2024-02-16T09:30:16;98977.35;;;5.22;62.00
84032;BME280;74113;46.556;24.570;2024-02-16T09:32:45;98977.65;;;5.29;61.98
84032;BME280;74113;46.556;24.570;2024-02-16T09:35:14;98977.61;;;5.36;61.60
84032;BME280;74113;46.556;24.570;2024-02-16T09:37:50;98976.87;;;5.45;60.71
84032;BME280;74113;46.556;24.570;2024-02-16T09:40:30;98975.75;;;5.56;60.89
84032;BME280;74113;46.556;24.570;2024-02-16T09:43:01;98970.17;;;5.66;59.88
84032;BME280;74113;46.556;24.570;2024-02-16T09:45:33;98967.18;;;5.74;60.16
84032;BME280;74113;46.556;24.570;2024-02-16T09:48:07;98966.95;;;5.81;59.95
84032;BME280;74113;46.556;24.570;2024-02-16T09:50:38;98962.63;;;5.85;60.16
84032;BME280;74113;46.556;24.570;2024-02-16T09:53:10;98961.59;;;5.88;59.42
84032;BME280;74113;46.556;24.570;2024-02-16T09:55:42;98956.37;;;5.93;58.98
84032;BME280;74113;46.556;24.570;2024-02-16T09:58:18;98951.11;;;6.03;59.26
84032;BME280;74113;46.556;24.570;2024-02-16T10:00:53;98953.23;;;6.15;59.53
84032;BME280;74113;46.556;24.570;2024-02-16T10:03:28;98947.79;;;6.26;58.69
84032;BME280;74113;46.556;24.570;2024-02-16T10:06:09;98948.55;;;6.35;59.40
84032;BME280;74113;46.556;24.570;2024-02-16T10:08:52;98946.52;;;6.46;59.21
84032;BME280;74113;46.556;24.570;2024-02-16T10:11:24;98943.11;;;6.58;59.16
84032;BME280;74113;46.556;24.570;2024-02-16T10:13:58;98937.98;;;6.68;58.08
84032;BME280;74113;46.556;24.570;2024-02-16T10:16:29;98932.97;;;6.83;58.35
84032;BME280;74113;46.556;24.570;2024-02-16T10:19:06;98928.88;;;6.93;57.52
84032;BME280;74113;46.556;24.570;2024-02-16T10:21:36;98929.23;;;7.05;56.85
84032;BME280;74113;46.556;24.570;2024-02-16T10:24:07;98924.95;;;7.15;56.34
84032;BME280;74113;46.556;24.570;2024-02-16T10:26:38;98920.50;;;7.24;57.43
84032;BME280;74113;46.556;24.570;2024-02-16T10:29:17;98917.77;;;7.33;57.20
84032;BME280;74113;46.556;24.570;2024-02-16T10:31:52;98912.98;;;7.42;57.25
84032;BME280;74113;46.556;24.570;2024-02-16T10:34:25;98914.52;;;7.54;57.36
84032;BME280;74113;46.556;24.570;2024-02-16T10:36:59;98907.95;;;7.65;54.58
84032;BME280;74113;46.556;24.570;2024-02-16T10:39:31;98902.84;;;7.70;54.49
84032;BME280;74113;46.556;24.570;2024-02-16T10:42:03;98902.02;;;7.78;55.29
84032;BME280;74113;46.556;24.570;2024-02-16T10:44:40;98897.16;;;7.90;55.48
84032;BME280;74113;46.556;24.570;2024-02-16T10:47:17;98890.99;;;8.05;55.27
84032;BME280;74113;46.556;24.570;2024-02-16T10:49:46;98892.06;;;8.21;55.48
84032;BME280;74113;46.556;24.570;2024-02-16T10:52:17;98886.36;;;8.32;53.58
84032;BME280;74113;46.556;24.570;2024-02-16T10:54:48;98879.63;;;8.41;53.54
84032;BME280;74113;46.556;24.570;2024-02-16T10:57:21;98878.52;;;8.53;54.49
84032;BME280;74113;46.556;24.570;2024-02-16T11:00:09;98877.69;;;8.59;54.73
84032;BME280;74113;46.556;24.570;2024-02-16T11:02:59;98874.81;;;8.65;54.79
84032;BME280;74113;46.556;24.570;2024-02-16T11:05:41;98873.39;;;8.66;54.53
84032;BME280;74113;46.556;24.570;2024-02-16T11:08:19;98870.95;;;8.67;51.69
84032;BME280;74113;46.556;24.570;2024-02-16T11:10:58;98872.55;;;8.73;53.67
84032;BME280;74113;46.556;24.570;2024-02-16T11:13:32;98870.00;;;8.79;51.60
84032;BME280;74113;46.556;24.570;2024-02-16T11:18:31;98868.15;;;8.84;52.92
84032;BME280;74113;46.556;24.570;2024-02-16T11:21:02;98864.22;;;8.90;52.34
84032;BME280;74113;46.556;24.570;2024-02-16T11:23:31;98862.28;;;8.92;51.53
84032;BME280;74113;46.556;24.570;2024-02-16T11:26:02;98854.96;;;8.94;51.12
84032;BME280;74113;46.556;24.570;2024-02-16T11:28:32;98855.70;;;8.99;51.73
84032;BME280;74113;46.556;24.570;2024-02-16T11:31:01;98855.23;;;9.05;51.54
84032;BME280;74113;46.556;24.570;2024-02-16T11:33:31;98850.65;;;9.08;50.82
84032;BME280;74113;46.556;24.570;2024-02-16T11:36:03;98849.52;;;9.12;50.57
84032;BME280;74113;46.556;24.570;2024-02-16T11:38:38;98850.41;;;9.18;51.91
84032;BME280;74113;46.556;24.570;2024-02-16T11:41:07;98847.93;;;9.28;51.95
84032;BME280;74113;46.556;24.570;2024-02-16T11:43:37;98846.57;;;9.62;50.74
84032;BME280;74113;46.556;24.570;2024-02-16T11:46:15;98840.35;;;10.13;49.47
84032;BME280;74113;46.556;24.570;2024-02-16T11:48:46;98836.65;;;10.53;51.39
84032;BME280;74113;46.556;24.570;2024-02-16T11:51:17;98835.04;;;10.77;50.32
84032;BME280;74113;46.556;24.570;2024-02-16T11:53:55;98833.55;;;10.91;48.09
84032;BME280;74113;46.556;24.570;2024-02-16T11:56:26;98829.55;;;11.09;45.73
84032;BME280;74113;46.556;24.570;2024-02-16T11:58:56;98822.82;;;11.66;46.03
84032;BME280;74113;46.556;24.570;2024-02-16T12:01:25;98824.91;;;12.39;46.27
84032;BME280;74113;46.556;24.570;2024-02-16T12:03:55;98825.55;;;13.13;44.84
84032;BME280;74113;46.556;24.570;2024-02-16T12:06:24;98822.67;;;13.67;40.56
84032;BME280;74113;46.556;24.570;2024-02-16T12:08:56;98820.58;;;14.19;38.37
84032;BME280;74113;46.556;24.570;2024-02-16T12:11:27;98817.63;;;14.65;37.05
84032;BME280;74113;46.556;24.570;2024-02-16T12:13:59;98817.24;;;15.10;39.79
84032;BME280;74113;46.556;24.570;2024-02-16T12:16:31;98814.74;;;15.50;38.98
84032;BME280;74113;46.556;24.570;2024-02-16T12:19:07;98813.93;;;15.97;41.80
84032;BME280;74113;46.556;24.570;2024-02-16T12:21:38;98810.56;;;16.38;39.02
84032;BME280;74113;46.556;24.570;2024-02-16T12:24:10;98804.89;;;16.69;37.57
84032;BME280;74113;46.556;24.570;2024-02-16T12:26:40;98798.09;;;16.78;32.57
84032;BME280;74113;46.556;24.570;2024-02-16T12:29:11;98801.27;;;16.81;35.54
84032;BME280;74113;46.556;24.570;2024-02-16T12:31:43;98800.08;;;16.60;34.67
84032;BME280;74113;46.556;24.570;2024-02-16T12:34:12;98803.23;;;16.44;32.00
84032;BME280;74113;46.556;24.570;2024-02-16T12:36:43;98801.94;;;16.42;35.34
84032;BME280;74113;46.556;24.570;2024-02-16T12:39:18;98799.23;;;16.66;37.23
84032;BME280;74113;46.556;24.570;2024-02-16T12:41:48;98798.77;;;16.91;35.11
84032;BME280;74113;46.556;24.570;2024-02-16T12:44:19;98798.97;;;16.87;30.81
84032;BME280;74113;46.556;24.570;2024-02-16T12:46:48;98792.70;;;16.86;33.74
84032;BME280;74113;46.556;24.570;2024-02-16T12:49:18;98792.30;;;16.97;33.96
84032;BME280;74113;46.556;24.570;2024-02-16T12:51:53;98787.27;;;17.02;34.50
84032;BME280;74113;46.556;24.570;2024-02-16T12:54:28;98784.23;;;17.28;36.25
84032;BME280;74113;46.556;24.570;2024-02-16T12:57:03;98783.01;;;17.12;31.29
84032;BME280;74113;46.556;24.570;2024-02-16T12:59:35;98786.35;;;16.84;32.28
84032;BME280;74113;46.556;24.570;2024-02-16T13:02:06;98784.92;;;16.49;31.25
84032;BME280;74113;46.556;24.570;2024-02-16T13:04:38;98789.15;;;16.26;31.80
84032;BME280;74113;46.556;24.570;2024-02-16T13:07:09;98792.19;;;16.08;33.38
84032;BME280;74113;46.556;24.570;2024-02-16T13:09:41;98791.55;;;16.20;32.22
84032;BME280;74113;46.556;24.570;2024-02-16T13:12:12;98789.42;;;16.21;34.47
84032;BME280;74113;46.556;24.570;2024-02-16T13:14:46;98787.60;;;16.09;33.51
84032;BME280;74113;46.556;24.570;2024-02-16T13:17:15;98779.50;;;15.87;32.54
84032;BME280;74113;46.556;24.570;2024-02-16T13:19:45;98778.23;;;15.53;31.97
84032;BME280;74113;46.556;24.570;2024-02-16T13:22:14;98783.10;;;15.25;32.64